sensor_id;sensor_type;location;lat;lon;timestamp;pressure;altitude;pressure_sealevel;temperature;humidity
54038;BME280;39954;48.844;9.726;2023-04-07T00:00:42;96115.25;;;3.54;100.00
54038;BME280;39954;48.844;9.726;2023-04-07T00:01:47;96118.66;;;3.54;100.00
54038;BME280;39954;48.844;9.726;2023-04-07T00:02:49;96114.34;;;3.55;100.00
54038;BME280;39954;48.844;9.726;2023-04-07T00:03:54;96118.56;;;3.57;100.00
54038;BME280;39954;48.844;9.726;2023-04-07T00:04:57;96118.72;;;3.53;100.00
54038;BME280;39954;48.844;9.726;2023-04-07T00:06:04;96116.16;;;3.53;100.00
54038;BME280;39954;48.844;9.726;2023-04-07T00:07:06;96120.31;;;3.55;100.00
54038;BME280;39954;48.844;9.726;2023-04-07T00:08:11;96117.84;;;3.52;100.00
54038;BME280;39954;48.844;9.726;2023-04-07T00:09:13;96120.41;;;3.52;100.00
54038;BME280;39954;48.844;9.726;2023-04-07T00:10:18;96120.31;;;3.55;100.00
54038;BME280;39954;48.844;9.726;2023-04-07T00:11:20;96122.88;;;3.57;100.00
54038;BME280;39954;48.844;9.726;2023-04-07T00:12:24;96119.31;;;3.61;100.00
54038;BME280;39954;48.844;9.726;2023-04-07T00:13:27;96108.19;;;3.61;100.00
54038;BME280;39954;48.844;9.726;2023-04-07T00:14:31;96114.16;;;3.61;100.00
54038;BME280;39954;48.844;9.726;2023-04-07T00:15:34;96111.75;;;3.56;100.00
54038;BME280;39954;48.844;9.726;2023-04-07T00:16:41;96109.22;;;3.55;100.00
54038;BME280;39954;48.844;9.726;2023-04-07T00:17:43;96117.81;;;3.54;100.00
54038;BME280;39954;48.844;9.726;2023-04-07T00:18:48;96111.88;;;3.52;100.00
54038;BME280;39954;48.844;9.726;2023-04-07T00:19:50;96119.56;;;3.52;100.00
54038;BME280;39954;48.844;9.726;2023-04-07T00:20:55;96111.00;;;3.53;100.00
54038;BME280;39954;48.844;9.726;2023-04-07T00:21:57;96112.69;;;3.54;100.00
54038;BME280;39954;48.844;9.726;2023-04-07T00:23:05;96114.34;;;3.55;100.00
54038;BME280;39954;48.844;9.726;2023-04-07T00:24:15;96108.34;;;3.56;100.00
54038;BME280;39954;48.844;9.726;2023-04-07T00:25:31;96100.72;;;3.53;100.00
54038;BME280;39954;48.844;9.726;2023-04-07T00:26:34;96104.06;;;3.55;100.00
54038;BME280;39954;48.844;9.726;2023-04-07T00:27:38;96096.25;;;3.59;100.00
54038;BME280;39954;48.844;9.726;2023-04-07T00:28:40;96097.88;;;3.62;100.00
54038;BME280;39954;48.844;9.726;2023-04-07T00:29:45;96097.81;;;3.64;100.00
54038;BME280;39954;48.844;9.726;2023-04-07T00:30:47;96086.47;;;3.71;100.00
54038;BME280;39954;48.844;9.726;2023-04-07T00:31:55;96094.19;;;3.71;100.00
54038;BME280;39954;48.844;9.726;2023-04-07T00:32:57;96087.44;;;3.67;100.00
54038;BME280;39954;48.844;9.726;2023-04-07T00:34:02;96092.56;;;3.68;100.00
54038;BME280;39954;48.844;9.726;2023-04-07T00:35:05;96084.56;;;3.77;100.00
54038;BME280;39954;48.844;9.726;2023-04-07T00:36:09;96087.22;;;3.74;100.00
54038;BME280;39954;48.844;9.726;2023-04-07T00:37:12;96082.88;;;3.76;100.00
54038;BME280;39954;48.844;9.726;2023-04-07T00:38:16;96081.13;;;3.78;100.00
54038;BME280;39954;48.844;9.726;2023-04-07T00:39:19;96077.75;;;3.76;100.00
54038;BME280;39954;48.844;9.726;2023-04-07T00:40:24;96077.03;;;3.71;100.00
54038;BME280;39954;48.844;9.726;2023-04-07T00:41:26;96080.50;;;3.70;100.00
54038;BME280;39954;48.844;9.726;2023-04-07T00:42:32;96076.22;;;3.69;100.00
54038;BME280;39954;48.844;9.726;2023-04-07T00:43:34;96071.78;;;3.76;100.00
54038;BME280;39954;48.844;9.726;2023-04-07T00:44:39;96071.78;;;3.76;100.00
54038;BME280;39954;48.844;9.726;2023-04-07T00:45:41;96067.59;;;3.72;100.00
54038;BME280;39954;48.844;9.726;2023-04-07T00:46:46;96071.28;;;3.63;100.00
54038;BME280;39954;48.844;9.726;2023-04-07T00:47:51;96067.66;;;3.70;100.00
54038;BME280;39954;48.844;9.726;2023-04-07T00:48:56;96068.41;;;3.74;100.00
54038;BME280;39954;48.844;9.726;2023-04-07T00:49:58;96065.03;;;3.72;100.00
54038;BME280;39954;48.844;9.726;2023-04-07T00:51:04;96061.63;;;3.71;100.00
54038;BME280;39954;48.844;9.726;2023-04-07T00:52:08;96067.69;;;3.69;100.00
54038;BME280;39954;48.844;9.726;2023-04-07T00:53:14;96064.38;;;3.65;100.00
54038;BME280;39954;48.844;9.726;2023-04-07T00:54:17;96066.03;;;3.66;100.00
54038;BME280;39954;48.844;9.726;2023-04-07T00:55:22;96065.94;;;3.69;100.00
54038;BME280;39954;48.844;9.726;2023-04-07T00:56:24;96058.34;;;3.66;100.00
54038;BME280;39954;48.844;9.726;2023-04-07T00:57:29;96054.00;;;3.68;100.00
54038;BME280;39954;48.844;9.726;2023-04-07T00:58:31;96057.22;;;3.75;100.00
54038;BME280;39954;48.844;9.726;2023-04-07T00:59:36;96048.84;;;3.68;100.00
54038;BME280;39954;48.844;9.726;2023-04-07T01:01:10;96048.47;;;3.80;100.00
54038;BME280;39954;48.844;9.726;2023-04-07T01:02:36;96046.28;;;3.68;100.00
54038;BME280;39954;48.844;9.726;2023-04-07T01:06:04;96036.28;;;3.59;100.00
54038;BME280;39954;48.844;9.726;2023-04-07T01:09:22;96034.75;;;3.53;100.00
54038;BME280;39954;48.844;9.726;2023-04-07T01:10:34;96034.88;;;3.49;100.00
54038;BME280;39954;48.844;9.726;2023-04-07T01:11:42;96036.63;;;3.47;100.00
54038;BME280;39954;48.844;9.726;2023-04-07T01:12:53;96036.44;;;3.54;100.00
54038;BME280;39954;48.844;9.726;2023-04-07T01:13:59;96033.91;;;3.53;100.00
54038;BME280;39954;48.844;9.726;2023-04-07T01:15:08;96027.16;;;3.49;100.00
54038;BME280;39954;48.844;9.726;2023-04-07T01:16:12;96022.13;;;3.46;100.00
54038;BME280;39954;48.844;9.726;2023-04-07T01:17:22;96022.25;;;3.41;100.00
54038;BME280;39954;48.844;9.726;2023-04-07T01:18:30;96022.16;;;3.44;100.00
54038;BME280;39954;48.844;9.726;2023-04-07T01:19:41;96023.19;;;3.39;100.00
54038;BME280;39954;48.844;9.726;2023-04-07T01:20:45;96024.16;;;3.34;100.00
54038;BME280;39954;48.844;9.726;2023-04-07T01:21:55;96020.78;;;3.32;100.00
54038;BME280;39954;48.844;9.726;2023-04-07T01:23:03;96019.03;;;3.34;100.00
54038;BME280;39954;48.844;9.726;2023-04-07T01:24:33;96020.06;;;3.29;100.00
54038;BME280;39954;48.844;9.726;2023-04-07T01:25:53;96020.97;;;3.26;100.00
54038;BME280;39954;48.844;9.726;2023-04-07T01:27:18;96022.66;;;3.27;100.00
54038;BME280;39954;48.844;9.726;2023-04-07T01:28:46;96012.44;;;3.26;100.00
54038;BME280;39954;48.844;9.726;2023-04-07T01:29:55;96019.06;;;3.33;100.00
54038;BME280;39954;48.844;9.726;2023-04-07T01:31:00;96016.47;;;3.34;100.00
54038;BME280;39954;48.844;9.726;2023-04-07T01:32:05;96008.69;;;3.36;100.00
54038;BME280;39954;48.844;9.726;2023-04-07T01:33:11;96012.13;;;3.36;100.00
54038;BME280;39954;48.844;9.726;2023-04-07T01:34:15;96007.16;;;3.30;100.00
54038;BME280;39954;48.844;9.726;2023-04-07T01:35:21;96013.91;;;3.34;100.00
54038;BME280;39954;48.844;9.726;2023-04-07T01:36:25;96007.00;;;3.36;100.00
54038;BME280;39954;48.844;9.726;2023-04-07T01:37:32;96007.03;;;3.35;100.00
54038;BME280;39954;48.844;9.726;2023-04-07T01:38:35;96005.28;;;3.35;100.00
54038;BME280;39954;48.844;9.726;2023-04-07T01:39:41;96006.22;;;3.33;100.00
54038;BME280;39954;48.844;9.726;2023-04-07T01:40:44;96005.28;;;3.35;100.00
54038;BME280;39954;48.844;9.726;2023-04-07T01:41:51;96009.59;;;3.35;100.00
54038;BME280;39954;48.844;9.726;2023-04-07T01:42:55;96007.16;;;3.30;100.00
54038;BME280;39954;48.844;9.726;2023-04-07T01:44:01;96012.22;;;3.33;100.00
54038;BME280;39954;48.844;9.726;2023-04-07T01:45:07;96006.06;;;3.39;100.00
54038;BME280;39954;48.844;9.726;2023-04-07T01:46:13;96008.56;;;3.41;100.00
54038;BME280;39954;48.844;9.726;2023-04-07T01:47:15;96007.59;;;3.45;100.00
54038;BME280;39954;48.844;9.726;2023-04-07T01:48:21;96006.72;;;3.46;100.00
54038;BME280;39954;48.844;9.726;2023-04-07T01:49:24;96008.38;;;3.47;100.00
54038;BME280;39954;48.844;9.726;2023-04-07T01:50:30;96005.56;;;3.56;100.00
54038;BME280;39954;48.844;9.726;2023-04-07T01:51:33;96009.00;;;3.55;100.00
54038;BME280;39954;48.844;9.726;2023-04-07T01:52:38;96004.94;;;3.48;100.00
54038;BME280;39954;48.844;9.726;2023-04-07T01:53:41;95998.00;;;3.50;100.00
54038;BME280;39954;48.844;9.726;2023-04-07T01:54:46;96006.72;;;3.46;100.00
54038;BME280;39954;48.844;9.726;2023-04-07T01:55:49;96008.47;;;3.44;100.00
54038;BME280;39954;48.844;9.726;2023-04-07T01:56:55;95997.50;;;3.39;100.00
54038;BME280;39954;48.844;9.726;2023-04-07T01:57:58;95992.53;;;3.32;100.00
54038;BME280;39954;48.844;9.726;2023-04-07T01:59:07;95997.69;;;3.32;100.00
54038;BME280;39954;48.844;9.726;2023-04-07T02:00:13;96000.25;;;3.32;100.00
54038;BME280;39954;48.844;9.726;2023-04-07T02:01:18;95993.44;;;3.31;100.00
54038;BME280;39954;48.844;9.726;2023-04-07T02:02:20;95997.88;;;3.26;100.00
54038;BME280;39954;48.844;9.726;2023-04-07T02:03:29;95997.88;;;3.26;100.00
54038;BME280;39954;48.844;9.726;2023-04-07T02:04:36;95991.91;;;3.26;100.00
54038;BME280;39954;48.844;9.726;2023-04-07T02:05:43;95995.19;;;3.29;100.00
54038;BME280;39954;48.844;9.726;2023-04-07T02:06:49;95987.47;;;3.31;100.00
54038;BME280;39954;48.844;9.726;2023-04-07T02:07:59;95991.75;;;3.30;100.00
54038;BME280;39954;48.844;9.726;2023-04-07T02:09:06;95990.06;;;3.29;100.00
54038;BME280;39954;48.844;9.726;2023-04-07T02:10:14;95994.28;;;3.32;100.00
54038;BME280;39954;48.844;9.726;2023-04-07T02:11:19;95987.47;;;3.31;100.00
54038;BME280;39954;48.844;9.726;2023-04-07T02:12:26;95979.78;;;3.29;100.00
54038;BME280;39954;48.844;9.726;2023-04-07T02:13:29;95982.97;;;3.38;100.00
54038;BME280;39954;48.844;9.726;2023-04-07T02:14:36;95983.81;;;3.38;100.00
54038;BME280;39954;48.844;9.726;2023-04-07T02:15:42;95979.56;;;3.37;100.00
54038;BME280;39954;48.844;9.726;2023-04-07T02:16:48;95983.88;;;3.36;100.00
54038;BME280;39954;48.844;9.726;2023-04-07T02:17:52;95981.31;;;3.36;100.00
54038;BME280;39954;48.844;9.726;2023-04-07T02:18:58;95982.03;;;3.40;100.00
54038;BME280;39954;48.844;9.726;2023-04-07T02:20:00;95976.09;;;3.38;100.00
54038;BME280;39954;48.844;9.726;2023-04-07T02:21:06;95983.00;;;3.36;100.00
54038;BME280;39954;48.844;9.726;2023-04-07T02:22:10;95978.84;;;3.33;100.00
54038;BME280;39954;48.844;9.726;2023-04-07T02:23:15;95978.75;;;3.36;100.00
54038;BME280;39954;48.844;9.726;2023-04-07T02:24:18;95975.38;;;3.34;100.00
54038;BME280;39954;48.844;9.726;2023-04-07T02:25:25;95971.13;;;3.33;100.00
54038;BME280;39954;48.844;9.726;2023-04-07T02:26:31;95970.22;;;3.34;100.00
54038;BME280;39954;48.844;9.726;2023-04-07T02:27:36;95972.56;;;3.42;100.00
54038;BME280;39954;48.844;9.726;2023-04-07T02:28:38;95967.13;;;3.53;100.00
54038;BME280;39954;48.844;9.726;2023-04-07T02:29:43;95955.13;;;3.52;100.00
54038;BME280;39954;48.844;9.726;2023-04-07T02:30:47;95953.66;;;3.45;100.00
54038;BME280;39954;48.844;9.726;2023-04-07T02:31:52;95964.00;;;3.42;100.00
54038;BME280;39954;48.844;9.726;2023-04-07T02:32:54;95957.19;;;3.41;100.00
54038;BME280;39954;48.844;9.726;2023-04-07T02:33:59;95957.19;;;3.41;100.00
54038;BME280;39954;48.844;9.726;2023-04-07T02:35:02;95962.34;;;3.41;100.00
54038;BME280;39954;48.844;9.726;2023-04-07T02:36:07;95958.00;;;3.43;100.00
54038;BME280;39954;48.844;9.726;2023-04-07T02:37:09;95957.00;;;3.47;100.00
54038;BME280;39954;48.844;9.726;2023-04-07T02:38:14;95958.69;;;3.48;100.00
54038;BME280;39954;48.844;9.726;2023-04-07T02:39:16;95959.66;;;3.44;100.00
54038;BME280;39954;48.844;9.726;2023-04-07T02:40:21;95954.53;;;3.44;100.00
54038;BME280;39954;48.844;9.726;2023-04-07T02:41:23;95958.03;;;3.41;100.00
54038;BME280;39954;48.844;9.726;2023-04-07T02:42:28;95960.75;;;3.36;100.00
54038;BME280;39954;48.844;9.726;2023-04-07T02:43:30;95953.16;;;3.33;100.00
54038;BME280;39954;48.844;9.726;2023-04-07T02:44:35;95956.66;;;3.31;100.00
54038;BME280;39954;48.844;9.726;2023-04-07T02:45:37;95952.34;;;3.31;100.00
54038;BME280;39954;48.844;9.726;2023-04-07T02:46:44;95947.00;;;3.38;100.00
54038;BME280;39954;48.844;9.726;2023-04-07T02:47:46;95953.72;;;3.42;100.00
54038;BME280;39954;48.844;9.726;2023-04-07T02:48:51;95947.63;;;3.46;100.00
54038;BME280;39954;48.844;9.726;2023-04-07T02:49:53;95945.75;;;3.51;100.00
54038;BME280;39954;48.844;9.726;2023-04-07T02:50:58;95949.25;;;3.48;100.00
54038;BME280;39954;48.844;9.726;2023-04-07T02:52:00;95947.50;;;3.50;100.00
54038;BME280;39954;48.844;9.726;2023-04-07T02:53:05;95957.16;;;3.42;100.00
54038;BME280;39954;48.844;9.726;2023-04-07T02:54:07;95952.13;;;3.39;100.00
54038;BME280;39954;48.844;9.726;2023-04-07T02:55:12;95952.84;;;3.43;100.00
54038;BME280;39954;48.844;9.726;2023-04-07T02:56:14;95946.59;;;3.51;100.00
54038;BME280;39954;48.844;9.726;2023-04-07T02:57:19;95948.41;;;3.48;100.00
54038;BME280;39954;48.844;9.726;2023-04-07T02:58:22;95947.56;;;3.47;100.00
54038;BME280;39954;48.844;9.726;2023-04-07T02:59:27;95945.94;;;3.45;100.00
54038;BME280;39954;48.844;9.726;2023-04-07T03:00:29;95946.81;;;3.44;100.00
54038;BME280;39954;48.844;9.726;2023-04-07T03:01:34;95941.88;;;3.38;100.00
54038;BME280;39954;48.844;9.726;2023-04-07T03:02:39;95939.34;;;3.36;100.00
54038;BME280;39954;48.844;9.726;2023-04-07T03:03:44;95934.25;;;3.34;100.00
54038;BME280;39954;48.844;9.726;2023-04-07T03:04:49;95940.31;;;3.33;100.00
54038;BME280;39954;48.844;9.726;2023-04-07T03:05:54;95947.22;;;3.31;100.00
54038;BME280;39954;48.844;9.726;2023-04-07T03:06:56;95932.66;;;3.30;100.00
54038;BME280;39954;48.844;9.726;2023-04-07T03:08:02;95931.69;;;3.34;100.00
54038;BME280;39954;48.844;9.726;2023-04-07T03:09:05;95937.63;;;3.36;100.00
54038;BME280;39954;48.844;9.726;2023-04-07T03:10:10;95933.34;;;3.37;100.00
54038;BME280;39954;48.844;9.726;2023-04-07T03:11:12;95938.97;;;3.48;100.00
54038;BME280;39954;48.844;9.726;2023-04-07T03:12:17;95932.22;;;3.46;100.00
54038;BME280;39954;48.844;9.726;2023-04-07T03:13:19;95930.28;;;3.52;100.00
54038;BME280;39954;48.844;9.726;2023-04-07T03:14:24;95931.13;;;3.53;100.00
54038;BME280;39954;48.844;9.726;2023-04-07T03:15:26;95918.28;;;3.53;100.00
54038;BME280;39954;48.844;9.726;2023-04-07T03:16:31;95919.25;;;3.49;100.00
54038;BME280;39954;48.844;9.726;2023-04-07T03:17:33;95916.34;;;3.59;100.00
54038;BME280;39954;48.844;9.726;2023-04-07T03:18:41;95909.34;;;3.65;100.00
54038;BME280;39954;48.844;9.726;2023-04-07T03:19:43;95917.28;;;3.57;100.00
54038;BME280;39954;48.844;9.726;2023-04-07T03:20:48;95916.59;;;3.52;100.00
54038;BME280;39954;48.844;9.726;2023-04-07T03:21:50;95917.59;;;3.48;100.00
54038;BME280;39954;48.844;9.726;2023-04-07T03:22:55;95922.91;;;3.42;100.00
54038;BME280;39954;48.844;9.726;2023-04-07T03:23:57;95920.31;;;3.42;100.00
54038;BME280;39954;48.844;9.726;2023-04-07T03:25:02;95914.31;;;3.43;100.00
54038;BME280;39954;48.844;9.726;2023-04-07T03:26:04;95921.13;;;3.44;100.00
54038;BME280;39954;48.844;9.726;2023-04-07T03:27:09;95913.59;;;3.39;100.00
54038;BME280;39954;48.844;9.726;2023-04-07T03:28:11;95912.81;;;3.35;100.00
54038;BME280;39954;48.844;9.726;2023-04-07T03:29:15;95916.28;;;3.34;100.00
54038;BME280;39954;48.844;9.726;2023-04-07T03:30:18;95909.50;;;3.32;100.00
54038;BME280;39954;48.844;9.726;2023-04-07T03:31:22;95916.41;;;3.30;100.00
54038;BME280;39954;48.844;9.726;2023-04-07T03:32:24;95916.38;;;3.31;100.00
54038;BME280;39954;48.844;9.726;2023-04-07T03:33:29;95906.75;;;3.38;100.00
54038;BME280;39954;48.844;9.726;2023-04-07T03:34:34;95911.66;;;3.46;100.00
54038;BME280;39954;48.844;9.726;2023-04-07T03:35:38;95908.34;;;3.42;100.00
54038;BME280;39954;48.844;9.726;2023-04-07T03:36:41;95914.31;;;3.43;100.00
54038;BME280;39954;48.844;9.726;2023-04-07T03:37:46;95916.09;;;3.41;100.00
54038;BME280;39954;48.844;9.726;2023-04-07T03:38:48;95909.28;;;3.40;100.00
54038;BME280;39954;48.844;9.726;2023-04-07T03:39:52;95917.75;;;3.42;100.00
54038;BME280;39954;48.844;9.726;2023-04-07T03:40:54;95914.31;;;3.43;100.00
54038;BME280;39954;48.844;9.726;2023-04-07T03:41:59;95917.03;;;3.38;100.00
54038;BME280;39954;48.844;9.726;2023-04-07T03:43:01;95914.44;;;3.38;100.00
54038;BME280;39954;48.844;9.726;2023-04-07T03:44:06;95914.53;;;3.36;100.00
54038;BME280;39954;48.844;9.726;2023-04-07T03:45:08;95907.78;;;3.32;100.00
54038;BME280;39954;48.844;9.726;2023-04-07T03:46:13;95910.41;;;3.31;100.00
54038;BME280;39954;48.844;9.726;2023-04-07T03:47:16;95913.81;;;3.31;100.00
54038;BME280;39954;48.844;9.726;2023-04-07T03:48:21;95912.88;;;3.34;100.00
54038;BME280;39954;48.844;9.726;2023-04-07T03:49:23;95897.50;;;3.32;100.00
54038;BME280;39954;48.844;9.726;2023-04-07T03:50:30;95903.47;;;3.33;100.00
54038;BME280;39954;48.844;9.726;2023-04-07T03:51:32;95906.09;;;3.31;100.00
54038;BME280;39954;48.844;9.726;2023-04-07T03:52:37;95904.41;;;3.30;100.00
54038;BME280;39954;48.844;9.726;2023-04-07T03:53:39;95900.06;;;3.32;100.00
54038;BME280;39954;48.844;9.726;2023-04-07T03:54:44;95901.84;;;3.30;100.00
54038;BME280;39954;48.844;9.726;2023-04-07T03:55:46;95903.66;;;3.27;100.00
54038;BME280;39954;48.844;9.726;2023-04-07T03:57:00;95908.88;;;3.25;100.00
54038;BME280;39954;48.844;9.726;2023-04-07T03:58:03;95909.75;;;3.24;100.00
54038;BME280;39954;48.844;9.726;2023-04-07T03:59:07;95904.59;;;3.24;100.00
54038;BME280;39954;48.844;9.726;2023-04-07T04:00:11;95906.41;;;3.22;100.00
54038;BME280;39954;48.844;9.726;2023-04-07T04:01:16;95906.25;;;3.27;100.00
54038;BME280;39954;48.844;9.726;2023-04-07T04:02:18;95904.50;;;3.27;100.00
54038;BME280;39954;48.844;9.726;2023-04-07T04:03:23;95906.84;;;3.35;100.00
54038;BME280;39954;48.844;9.726;2023-04-07T04:04:26;95894.81;;;3.37;100.00
54038;BME280;39954;48.844;9.726;2023-04-07T04:05:33;95899.97;;;3.35;100.00
54038;BME280;39954;48.844;9.726;2023-04-07T04:06:41;95902.53;;;3.35;100.00
54038;BME280;39954;48.844;9.726;2023-04-07T04:07:46;95899.00;;;3.40;100.00
54038;BME280;39954;48.844;9.726;2023-04-07T04:08:48;95902.28;;;3.45;100.00
54038;BME280;39954;48.844;9.726;2023-04-07T04:09:52;95897.03;;;3.48;100.00
54038;BME280;39954;48.844;9.726;2023-04-07T04:10:54;95901.38;;;3.46;100.00
54038;BME280;39954;48.844;9.726;2023-04-07T04:11:59;95903.88;;;3.47;100.00
54038;BME280;39954;48.844;9.726;2023-04-07T04:13:01;95898.81;;;3.46;100.00
54038;BME280;39954;48.844;9.726;2023-04-07T04:14:08;95897.13;;;3.45;100.00
54038;BME280;39954;48.844;9.726;2023-04-07T04:15:10;95904.84;;;3.45;100.00
54038;BME280;39954;48.844;9.726;2023-04-07T04:16:15;95902.28;;;3.45;100.00
54038;BME280;39954;48.844;9.726;2023-04-07T04:17:17;95908.28;;;3.44;100.00
54038;BME280;39954;48.844;9.726;2023-04-07T04:18:22;95902.28;;;3.45;100.00
54038;BME280;39954;48.844;9.726;2023-04-07T04:19:24;95903.16;;;3.44;100.00
54038;BME280;39954;48.844;9.726;2023-04-07T04:20:29;95904.03;;;3.43;100.00
54038;BME280;39954;48.844;9.726;2023-04-07T04:21:34;95904.03;;;3.43;100.00
54038;BME280;39954;48.844;9.726;2023-04-07T04:22:38;95907.47;;;3.42;100.00
54038;BME280;39954;48.844;9.726;2023-04-07T04:23:40;95910.75;;;3.47;100.00
54038;BME280;39954;48.844;9.726;2023-04-07T04:24:45;95903.00;;;3.48;100.00
54038;BME280;39954;48.844;9.726;2023-04-07T04:25:47;95914.13;;;3.49;100.00
54038;BME280;39954;48.844;9.726;2023-04-07T04:26:52;95907.13;;;3.54;100.00
54038;BME280;39954;48.844;9.726;2023-04-07T04:27:54;95902.00;;;3.52;100.00
54038;BME280;39954;48.844;9.726;2023-04-07T04:28:59;95903.75;;;3.52;100.00
54038;BME280;39954;48.844;9.726;2023-04-07T04:30:01;95909.78;;;3.51;100.00
54038;BME280;39954;48.844;9.726;2023-04-07T04:31:06;95905.44;;;3.53;100.00
54038;BME280;39954;48.844;9.726;2023-04-07T04:32:08;95903.41;;;3.63;100.00
54038;BME280;39954;48.844;9.726;2023-04-07T04:33:13;95906.06;;;3.59;100.00
54038;BME280;39954;48.844;9.726;2023-04-07T04:34:17;95906.09;;;3.58;100.00
54038;BME280;39954;48.844;9.726;2023-04-07T04:35:19;95901.13;;;3.53;100.00
54038;BME280;39954;48.844;9.726;2023-04-07T04:36:24;95907.22;;;3.51;100.00
54038;BME280;39954;48.844;9.726;2023-04-07T04:37:29;95902.19;;;3.48;100.00
54038;BME280;39954;48.844;9.726;2023-04-07T04:38:34;95910.06;;;3.42;100.00
54038;BME280;39954;48.844;9.726;2023-04-07T04:39:36;95904.03;;;3.43;100.00
54038;BME280;39954;48.844;9.726;2023-04-07T04:40:41;95907.59;;;3.39;100.00
54038;BME280;39954;48.844;9.726;2023-04-07T04:41:44;95909.28;;;3.40;100.00
54038;BME280;39954;48.844;9.726;2023-04-07T04:42:48;95906.81;;;3.36;100.00
54038;BME280;39954;48.844;9.726;2023-04-07T04:43:51;95907.69;;;3.35;100.00
54038;BME280;39954;48.844;9.726;2023-04-07T04:44:56;95911.06;;;3.38;100.00
54038;BME280;39954;48.844;9.726;2023-04-07T04:45:58;95907.69;;;3.35;100.00
54038;BME280;39954;48.844;9.726;2023-04-07T04:47:03;95909.38;;;3.36;100.00
54038;BME280;39954;48.844;9.726;2023-04-07T04:48:05;95903.34;;;3.38;100.00
54038;BME280;39954;48.844;9.726;2023-04-07T04:49:11;95901.69;;;3.36;100.00
54038;BME280;39954;48.844;9.726;2023-04-07T04:50:13;95902.53;;;3.35;100.00
54038;BME280;39954;48.844;9.726;2023-04-07T04:51:18;95905.06;;;3.37;100.00
54038;BME280;39954;48.844;9.726;2023-04-07T04:52:20;95904.25;;;3.36;100.00
54038;BME280;39954;48.844;9.726;2023-04-07T04:53:27;95905.19;;;3.34;100.00
54038;BME280;39954;48.844;9.726;2023-04-07T04:54:29;95902.63;;;3.32;100.00
54038;BME280;39954;48.844;9.726;2023-04-07T04:55:34;95904.28;;;3.35;100.00
54038;BME280;39954;48.844;9.726;2023-04-07T04:56:36;95904.34;;;3.33;100.00
54038;BME280;39954;48.844;9.726;2023-04-07T04:57:41;95907.69;;;3.35;100.00
54038;BME280;39954;48.844;9.726;2023-04-07T04:58:43;95902.44;;;3.39;100.00
54038;BME280;39954;48.844;9.726;2023-04-07T04:59:48;95903.22;;;3.42;100.00
54038;BME280;39954;48.844;9.726;2023-04-07T05:00:52;95903.09;;;3.45;100.00
54038;BME280;39954;48.844;9.726;2023-04-07T05:01:59;95901.38;;;3.46;100.00
54038;BME280;39954;48.844;9.726;2023-04-07T05:03:01;95903.94;;;3.46;100.00
54038;BME280;39954;48.844;9.726;2023-04-07T05:04:06;95898.81;;;3.46;100.00
54038;BME280;39954;48.844;9.726;2023-04-07T05:05:10;95892.88;;;3.44;100.00
54038;BME280;39954;48.844;9.726;2023-04-07T05:06:15;95892.78;;;3.47;100.00
54038;BME280;39954;48.844;9.726;2023-04-07T05:07:17;95893.56;;;3.49;100.00
54038;BME280;39954;48.844;9.726;2023-04-07T05:08:22;95894.47;;;3.48;100.00
54038;BME280;39954;48.844;9.726;2023-04-07T05:09:27;95890.19;;;3.47;100.00
54038;BME280;39954;48.844;9.726;2023-04-07T05:10:31;95896.13;;;3.49;100.00
54038;BME280;39954;48.844;9.726;2023-04-07T05:11:36;95895.22;;;3.50;100.00
54038;BME280;39954;48.844;9.726;2023-04-07T05:12:38;95892.66;;;3.50;100.00
54038;BME280;39954;48.844;9.726;2023-04-07T05:13:43;95891.78;;;3.51;100.00
54038;BME280;39954;48.844;9.726;2023-04-07T05:14:45;95890.91;;;3.52;100.00
54038;BME280;39954;48.844;9.726;2023-04-07T05:15:50;95893.31;;;3.56;100.00
54038;BME280;39954;48.844;9.726;2023-04-07T05:16:52;95886.44;;;3.57;100.00
54038;BME280;39954;48.844;9.726;2023-04-07T05:17:57;95893.25;;;3.58;100.00
54038;BME280;39954;48.844;9.726;2023-04-07T05:18:59;95882.13;;;3.59;100.00
54038;BME280;39954;48.844;9.726;2023-04-07T05:20:07;95884.69;;;3.59;100.00
54038;BME280;39954;48.844;9.726;2023-04-07T05:21:10;95890.66;;;3.59;100.00
54038;BME280;39954;48.844;9.726;2023-04-07T05:22:14;95881.22;;;3.60;100.00
54038;BME280;39954;48.844;9.726;2023-04-07T05:23:17;95887.09;;;3.64;100.00
54038;BME280;39954;48.844;9.726;2023-04-07T05:24:21;95884.47;;;3.65;100.00
54038;BME280;39954;48.844;9.726;2023-04-07T05:25:26;95885.41;;;3.63;100.00
54038;BME280;39954;48.844;9.726;2023-04-07T05:26:31;95882.69;;;3.67;100.00
54038;BME280;39954;48.844;9.726;2023-04-07T05:27:33;95881.06;;;3.65;100.00
54038;BME280;39954;48.844;9.726;2023-04-07T05:28:37;95879.38;;;3.64;100.00
54038;BME280;39954;48.844;9.726;2023-04-07T05:29:40;95879.34;;;3.65;100.00
54038;BME280;39954;48.844;9.726;2023-04-07T05:30:44;95881.84;;;3.67;100.00
54038;BME280;39954;48.844;9.726;2023-04-07T05:31:49;95884.38;;;3.68;100.00
54038;BME280;39954;48.844;9.726;2023-04-07T05:32:51;95882.59;;;3.70;100.00
54038;BME280;39954;48.844;9.726;2023-04-07T05:33:57;95877.56;;;3.67;100.00
54038;BME280;39954;48.844;9.726;2023-04-07T05:34:59;95875.88;;;3.66;100.00
54038;BME280;39954;48.844;9.726;2023-04-07T05:36:04;95876.69;;;3.67;100.00
54038;BME280;39954;48.844;9.726;2023-04-07T05:37:07;95877.56;;;3.67;100.00
54038;BME280;39954;48.844;9.726;2023-04-07T05:38:12;95880.06;;;3.69;100.00
54038;BME280;39954;48.844;9.726;2023-04-07T05:39:14;95880.91;;;3.69;100.00
54038;BME280;39954;48.844;9.726;2023-04-07T05:40:18;95880.75;;;3.74;100.00
54038;BME280;39954;48.844;9.726;2023-04-07T05:41:23;95877.25;;;3.76;100.00
54038;BME280;39954;48.844;9.726;2023-04-07T05:42:28;95884.06;;;3.77;100.00
54038;BME280;39954;48.844;9.726;2023-04-07T05:43:30;95885.69;;;3.80;100.00
54038;BME280;39954;48.844;9.726;2023-04-07T05:44:35;95891.63;;;3.82;100.00
54038;BME280;39954;48.844;9.726;2023-04-07T05:45:37;95883.13;;;3.80;100.00
54038;BME280;39954;48.844;9.726;2023-04-07T05:46:42;95884.91;;;3.78;100.00
54038;BME280;39954;48.844;9.726;2023-04-07T05:47:44;95892.47;;;3.83;100.00